createdAt,value
2018-09-10T00:42:51.574Z,22.2
2018-09-10T00:43:41.124Z,22.2
2018-09-10T00:44:31.198Z,22.2
2018-09-10T00:45:20.699Z,22.2
2018-09-10T00:46:11.028Z,22.2
2018-09-10T00:47:01.096Z,22.3
2018-09-10T00:47:52.036Z,22.2
2018-09-10T00:48:41.820Z,22.3
2018-09-10T00:49:31.289Z,22.3
2018-09-10T00:50:21.621Z,22.3
2018-09-10T00:51:12.218Z,22.3
2018-09-10T00:52:00.901Z,22.3
2018-09-10T00:52:52.005Z,22.4
2018-09-10T00:53:41.553Z,22.4
2018-09-10T00:54:31.935Z,22.4
2018-09-10T00:55:22.201Z,22.4
2018-09-10T00:56:12.078Z,22.4
2018-09-10T00:57:01.830Z,22.4
2018-09-10T00:57:52.425Z,22.4
2018-09-10T00:58:42.824Z,22.4
2018-09-10T00:59:32.350Z,22.4
2018-09-10T01:00:22.376Z,22.4
2018-09-10T01:01:12.427Z,22.4
2018-09-10T01:02:02.200Z,22.4
2018-09-10T01:02:53.356Z,22.4
2018-09-10T01:03:42.668Z,22.4
2018-09-10T01:04:32.974Z,22.4
2018-09-10T01:05:23.332Z,22.4
2018-09-10T01:06:13.073Z,22.4
2018-09-10T01:07:03.137Z,22.4
2018-09-10T01:07:53.675Z,22.4
2018-09-10T01:08:42.682Z,22.5
2018-09-10T01:09:33.352Z,22.5
2018-09-10T01:10:23.112Z,22.5
2018-09-10T01:11:13.479Z,22.5
2018-09-10T01:12:03.808Z,22.5
2018-09-10T01:12:53.526Z,22.5
2018-09-10T01:13:43.627Z,22.5
2018-09-10T01:14:33.439Z,22.5
2018-09-10T01:15:23.535Z,22.4
2018-09-10T01:16:13.804Z,22.4
2018-09-10T01:17:03.638Z,22.4
2018-09-10T01:17:53.431Z,22.4
2018-09-10T01:18:43.715Z,22.4
2018-09-10T01:19:34.352Z,22.4
2018-09-10T01:20:24.150Z,22.4
2018-09-10T01:21:13.664Z,22.4
2018-09-10T01:22:04.552Z,22.4
2018-09-10T01:22:54.868Z,22.4
2018-09-10T01:23:44.934Z,22.4
2018-09-10T01:24:34.027Z,22.4
2018-09-10T01:25:24.536Z,22.4
2018-09-10T01:26:14.934Z,22.4
2018-09-10T01:27:04.361Z,22.4
2018-09-10T01:27:54.008Z,22.4
2018-09-10T01:28:44.034Z,22.4
2018-09-10T01:29:34.098Z,22.4
2018-09-10T01:30:23.020Z,22.4
2018-09-10T01:31:13.549Z,22.4
2018-09-10T01:32:04.504Z,22.4
2018-09-10T01:32:54.883Z,22.4
2018-09-10T01:33:44.951Z,22.4
2018-09-10T01:34:34.649Z,22.4
2018-09-10T01:35:25.285Z,22.4
2018-09-10T01:36:15.055Z,22.4
2018-09-10T01:37:05.409Z,22.4
2018-09-10T01:37:55.778Z,22.4
2018-09-10T01:38:45.523Z,22.4
2018-09-10T01:39:35.870Z,22.4
2018-09-10T01:40:25.740Z,22.3
2018-09-10T01:41:15.445Z,22.3
2018-09-10T01:42:05.525Z,22.3
2018-09-10T01:42:55.627Z,22.3
2018-09-10T01:43:45.652Z,22.3
2018-09-10T01:44:35.405Z,22.3
2018-09-10T01:45:25.759Z,22.3
2018-09-10T01:46:15.800Z,22.3
2018-09-10T01:47:06.177Z,22.3
2018-09-10T01:47:56.260Z,22.3
2018-09-10T01:48:46.304Z,22.3
2018-09-10T01:49:36.309Z,22.3
2018-09-10T01:50:26.669Z,22.3
2018-09-10T01:51:16.187Z,22.3
2018-09-10T01:52:05.986Z,22.3
2018-09-10T01:52:56.682Z,22.3
2018-09-10T01:53:46.679Z,22.3
2018-09-10T01:54:36.739Z,22.3
2018-09-10T01:55:25.967Z,22.3
2018-09-10T01:56:16.280Z,22.3
2018-09-10T01:57:06.640Z,22.3
2018-09-10T01:57:56.743Z,22.3
2018-09-10T01:58:47.273Z,22.2
2018-09-10T01:59:37.360Z,22.2
2018-09-10T02:00:27.474Z,22.2
2018-09-10T02:01:16.952Z,22.2
2018-09-10T02:02:06.501Z,22.2
2018-09-10T02:02:57.399Z,22.2
2018-09-10T02:03:47.439Z,22.2
2018-09-10T02:04:37.265Z,22.2
2018-09-10T02:05:27.515Z,22.2
2018-09-10T02:06:17.025Z,22.2
2018-09-10T02:07:07.646Z,22.1
2018-09-10T02:07:57.456Z,22.1
2018-09-10T02:08:48.076Z,22.1
2018-09-10T02:09:37.815Z,22.1
2018-09-10T02:10:28.190Z,22.1
2018-09-10T02:11:17.410Z,22.1
2018-09-10T02:12:07.221Z,22.1
2018-09-10T02:12:57.778Z,22.1
2018-09-10T02:13:48.461Z,22.1
2018-09-10T02:14:38.275Z,22.1
2018-09-10T02:15:28.118Z,22.1
2018-09-10T02:16:18.888Z,22.1
2018-09-10T02:17:09.637Z,22.1
2018-09-10T02:17:58.808Z,22.1
2018-09-10T02:18:48.290Z,22.1
2018-09-10T02:19:38.336Z,22.1
2018-09-10T02:20:29.855Z,22.1
2018-09-10T02:21:18.157Z,22.1
2018-09-10T02:22:08.233Z,22.1
2018-09-10T02:22:58.580Z,22.1
2018-09-10T02:23:49.473Z,22.1
2018-09-10T02:24:38.755Z,22.1
2018-09-10T02:25:29.073Z,22.1
2018-09-10T02:26:19.030Z,22.1
2018-09-10T02:27:08.594Z,22.1
2018-09-10T02:28:00.452Z,22.1
2018-09-10T02:28:49.056Z,22.1
2018-09-10T02:29:39.040Z,22.1
2018-09-10T02:30:29.178Z,22.1
2018-09-10T02:31:19.873Z,22.1
2018-09-10T02:32:09.592Z,22.1
2018-09-10T02:32:59.083Z,22.1
2018-09-10T02:33:49.640Z,22.1
2018-09-10T02:34:40.062Z,22.1
2018-09-10T02:35:30.095Z,22.1
2018-09-10T02:36:19.329Z,22.1
2018-09-10T02:37:10.697Z,22.1
2018-09-10T02:38:00.177Z,22.1
2018-09-10T02:38:50.927Z,22.1
2018-09-10T02:39:40.327Z,22.1
2018-09-10T02:40:29.873Z,22.1
2018-09-10T02:41:19.384Z,22.1
2018-09-10T02:42:10.038Z,22.1
2018-09-10T02:42:59.835Z,22.1
2018-09-10T02:43:50.162Z,22.1
2018-09-10T02:44:40.770Z,22.1
2018-09-10T02:45:30.002Z,22.1
2018-09-10T02:46:19.759Z,22.1
2018-09-10T02:47:10.973Z,22.1
2018-09-10T02:48:00.784Z,22.1
2018-09-10T02:48:50.547Z,22.1
2018-09-10T02:49:40.897Z,22.1
2018-09-10T02:50:29.884Z,22.1
2018-09-10T02:51:21.312Z,22.1
2018-09-10T02:52:09.981Z,22
2018-09-10T02:53:01.452Z,22.1
2018-09-10T02:53:51.138Z,22
2018-09-10T02:54:41.953Z,22
2018-09-10T02:55:32.057Z,22
2018-09-10T02:56:21.270Z,22
2018-09-10T02:57:11.451Z,22
2018-09-10T02:58:01.529Z,22
2018-09-10T02:58:52.316Z,22
2018-09-10T02:59:42.169Z,22
2018-09-10T03:00:31.723Z,22
2018-09-10T03:01:21.451Z,22
2018-09-10T03:02:11.842Z,22
2018-09-10T03:03:00.739Z,22
2018-09-10T03:03:51.688Z,21.9
2018-09-10T03:04:42.059Z,21.9
2018-09-10T03:05:32.282Z,21.9
2018-09-10T03:06:21.306Z,21.9
2018-09-10T03:07:11.984Z,22
2018-09-10T03:08:02.303Z,21.9
2018-09-10T03:08:52.660Z,21.9
2018-09-10T03:09:41.543Z,22
2018-09-10T03:10:32.166Z,22
2018-09-10T03:11:22.220Z,21.9
2018-09-10T03:12:12.308Z,21.9
2018-09-10T03:13:02.621Z,21.9
2018-09-10T03:13:51.835Z,21.9
2018-09-10T03:14:43.569Z,21.9
2018-09-10T03:15:34.911Z,21.9
2018-09-10T03:16:25.407Z,21.9
2018-09-10T03:17:12.450Z,21.9
2018-09-10T03:18:04.511Z,21.9
2018-09-10T03:18:53.350Z,21.9
2018-09-10T03:19:42.601Z,21.9
2018-09-10T03:20:33.729Z,21.9
2018-09-10T03:21:23.279Z,21.9
2018-09-10T03:22:13.590Z,21.9
2018-09-10T03:23:03.202Z,21.9
2018-09-10T03:23:53.526Z,21.9
2018-09-10T03:24:43.219Z,21.9
2018-09-10T03:25:34.534Z,21.9
2018-09-10T03:26:25.497Z,21.9
2018-09-10T03:27:13.421Z,21.9
2018-09-10T03:28:03.490Z,21.9
2018-09-10T03:28:52.704Z,21.9
2018-09-10T03:29:43.894Z,21.9
2018-09-10T03:30:34.834Z,21.9
2018-09-10T03:31:24.345Z,21.9
2018-09-10T03:32:14.124Z,21.9
2018-09-10T03:33:04.426Z,21.9
2018-09-10T03:33:54.689Z,21.9
2018-09-10T03:34:43.968Z,21.9
2018-09-10T03:35:34.003Z,21.8
2018-09-10T03:36:24.046Z,21.8
2018-09-10T03:37:13.884Z,21.9
2018-09-10T03:38:04.226Z,21.9
2018-09-10T03:38:54.564Z,21.8
2018-09-10T03:39:44.658Z,21.8
2018-09-10T03:40:34.136Z,21.8
2018-09-10T03:41:24.793Z,21.8
2018-09-10T03:42:14.023Z,21.8
2018-09-10T03:43:04.916Z,21.8
2018-09-10T03:43:55.290Z,21.8
2018-09-10T03:44:45.770Z,21.8
2018-09-10T03:45:35.323Z,21.8
2018-09-10T03:46:25.400Z,21.8
2018-09-10T03:47:16.007Z,21.8
2018-09-10T03:48:05.285Z,21.8
2018-09-10T03:48:55.385Z,21.8
2018-09-10T03:49:45.143Z,21.8
2018-09-10T03:50:35.805Z,21.8
2018-09-10T03:51:26.330Z,21.8
2018-09-10T03:52:14.457Z,21.8
2018-09-10T03:53:05.986Z,21.8
2018-09-10T03:53:54.857Z,21.8
2018-09-10T03:54:45.460Z,21.8
2018-09-10T03:55:35.795Z,21.8
2018-09-10T03:56:26.220Z,21.8
2018-09-10T03:57:15.644Z,21.8
2018-09-10T03:58:05.734Z,21.8
2018-09-10T03:58:55.768Z,21.8
2018-09-10T03:59:45.292Z,21.7
2018-09-10T04:00:36.221Z,21.8
2018-09-10T04:01:26.331Z,21.8
2018-09-10T04:02:16.987Z,21.8
2018-09-10T04:03:06.904Z,21.7
2018-09-10T04:03:56.607Z,21.7
2018-09-10T04:04:46.390Z,21.7
2018-09-10T04:05:36.091Z,21.7
2018-09-10T04:06:27.676Z,21.7
2018-09-10T04:07:17.068Z,21.7
2018-09-10T04:08:07.026Z,21.7
2018-09-10T04:08:56.531Z,21.7
2018-09-10T04:09:46.347Z,21.7
2018-09-10T04:10:36.908Z,21.7
2018-09-10T04:11:26.513Z,21.7
2018-09-10T04:12:17.387Z,21.7
2018-09-10T04:13:06.828Z,21.7
2018-09-10T04:13:57.208Z,21.7
2018-09-10T04:14:46.685Z,21.7
2018-09-10T04:15:37.624Z,21.7
2018-09-10T04:16:27.397Z,21.7
2018-09-10T04:17:19.046Z,21.6
2018-09-10T04:18:07.801Z,21.6
2018-09-10T04:18:57.610Z,21.6
2018-09-10T04:19:47.373Z,21.7
2018-09-10T04:20:37.171Z,21.6
2018-09-10T04:21:27.193Z,21.7
2018-09-10T04:22:17.533Z,21.6
2018-09-10T04:23:08.017Z,21.7
2018-09-10T04:23:56.522Z,21.6
2018-09-10T04:24:48.330Z,21.6
2018-09-10T04:25:38.322Z,21.6
2018-09-10T04:26:29.609Z,21.6
2018-09-10T04:27:18.442Z,21.6
2018-09-10T04:28:07.719Z,21.6
2018-09-10T04:28:58.341Z,21.6
2018-09-10T04:29:48.168Z,21.6
2018-09-10T04:30:38.751Z,21.6
2018-09-10T04:31:27.401Z,21.6
2018-09-10T04:32:18.847Z,21.7
2018-09-10T04:33:08.608Z,21.6
2018-09-10T04:33:58.803Z,21.7
2018-09-10T04:34:48.478Z,21.6
2018-09-10T04:35:38.252Z,21.6
2018-09-10T04:36:28.398Z,21.6
2018-09-10T04:37:19.432Z,21.6
2018-09-10T04:38:09.552Z,21.6
2018-09-10T04:38:58.818Z,21.6
2018-09-10T04:39:48.622Z,21.6
2018-09-10T04:40:38.927Z,21.6
2018-09-10T04:41:29.355Z,21.6
2018-09-10T04:42:20.276Z,21.6
2018-09-10T04:43:09.433Z,21.6
2018-09-10T04:43:58.836Z,21.7
2018-09-10T04:44:49.228Z,21.7
2018-09-10T04:45:39.297Z,21.7
2018-09-10T04:46:28.782Z,21.7
2018-09-10T04:47:18.610Z,21.7
2018-09-10T04:48:09.755Z,21.7
2018-09-10T04:48:59.326Z,21.7
2018-09-10T04:49:51.774Z,21.7
2018-09-10T04:50:39.675Z,21.7
2018-09-10T04:51:29.478Z,21.7
2018-09-10T04:52:20.036Z,21.7
2018-09-10T04:53:10.140Z,21.7
2018-09-10T04:53:59.940Z,21.6
2018-09-10T05:11:41.269Z,21.4
2018-09-10T05:12:30.219Z,21.4
2018-09-10T05:13:20.268Z,21.4
2018-09-10T05:14:10.616Z,21.4
2018-09-10T05:15:00.456Z,21.4
2018-09-10T05:15:49.945Z,21.5
2018-09-10T05:16:40.851Z,21.5
2018-09-10T05:17:30.638Z,21.5
2018-09-10T05:18:20.647Z,21.6
2018-09-10T05:19:12.590Z,21.6
2018-09-10T05:20:02.256Z,21.6
2018-09-10T05:20:51.339Z,21.6
2018-09-10T05:21:42.006Z,21.6
2018-09-10T05:22:29.903Z,21.7
2018-09-10T05:23:20.821Z,21.7
2018-09-10T05:24:10.538Z,21.7
2018-09-10T05:25:01.318Z,21.7
2018-09-10T05:25:50.601Z,21.7
2018-09-10T05:26:42.350Z,21.8
2018-09-10T05:27:30.839Z,21.8
2018-09-10T05:28:22.634Z,21.8
2018-09-10T05:29:11.288Z,21.8
2018-09-10T05:30:00.678Z,21.8
2018-09-10T05:30:51.091Z,21.8
2018-09-10T05:31:42.200Z,21.8
2018-09-10T05:32:31.462Z,21.9
2018-09-10T05:33:21.782Z,21.9
2018-09-10T05:34:11.310Z,21.9
2018-09-10T05:35:01.650Z,21.9
2018-09-10T05:35:52.294Z,21.9
2018-09-10T05:36:42.277Z,21.9
2018-09-10T05:37:32.341Z,21.9
2018-09-10T05:38:22.138Z,21.9
2018-09-10T05:39:13.053Z,21.9
2018-09-10T05:40:02.628Z,21.9
2018-09-10T05:40:52.747Z,21.9
2018-09-10T05:41:45.654Z,21.9
2018-09-10T05:42:33.429Z,21.9
2018-09-10T05:43:22.266Z,21.8
2018-09-10T05:44:12.851Z,21.9
2018-09-10T05:45:02.979Z,21.9
2018-09-10T05:45:52.428Z,21.9
2018-09-10T05:46:42.841Z,21.9
2018-09-10T05:47:34.912Z,21.9
2018-09-10T05:48:23.285Z,21.9
2018-09-10T05:49:12.718Z,21.9
2018-09-10T05:50:02.523Z,21.9
2018-09-10T05:50:52.840Z,21.9
2018-09-10T05:51:42.895Z,21.9
2018-09-10T05:52:33.128Z,21.9
2018-09-10T05:53:25.599Z,21.9
2018-09-10T05:54:13.708Z,21.9
2018-09-10T05:55:03.742Z,21.9
2018-09-10T05:55:53.787Z,21.9
2018-09-10T05:56:42.972Z,21.9
2018-09-10T05:57:34.379Z,21.9
2018-09-10T05:58:23.645Z,21.9
2018-09-10T05:59:13.134Z,21.9
2018-09-10T06:00:03.793Z,22
2018-09-10T06:00:53.823Z,22
2018-09-10T06:01:44.177Z,22
2018-09-10T06:02:34.537Z,22
2018-09-10T06:03:23.447Z,22
2018-09-10T06:04:14.180Z,22
2018-09-10T06:05:03.897Z,22.1
2018-09-10T06:05:53.742Z,22
2018-09-10T06:06:44.285Z,22.1
2018-09-10T06:07:34.892Z,22
2018-09-10T06:08:24.465Z,22.1
2018-09-10T06:09:14.787Z,22
2018-09-10T06:10:04.585Z,22.1
2018-09-10T06:10:54.842Z,22.1
2018-09-10T06:11:45.054Z,22.1
2018-09-10T06:12:35.019Z,22.1
2018-09-10T06:13:25.061Z,22.1
2018-09-10T06:14:14.487Z,22.1
2018-09-10T06:15:04.648Z,22.1
2018-09-10T06:15:54.719Z,22.1
2018-09-10T06:16:45.645Z,22.1
2018-09-10T06:17:35.216Z,22.1
2018-09-10T06:18:25.172Z,22.1
2018-09-10T06:19:15.899Z,22.1
2018-09-10T06:20:04.507Z,22.2
2018-09-10T06:20:54.526Z,22.2
2018-09-10T06:21:45.423Z,22.3
2018-09-10T06:22:35.442Z,22.3
2018-09-10T06:23:24.683Z,22.3
2018-09-10T06:24:15.013Z,22.3
2018-09-10T06:25:05.344Z,22.3
2018-09-10T06:25:55.423Z,22.3
2018-09-10T06:26:46.056Z,22.3
2018-09-10T06:27:35.903Z,22.3
2018-09-10T06:28:25.935Z,22.3
2018-09-10T06:29:15.961Z,22.4
2018-09-10T06:30:06.479Z,22.4
2018-09-10T06:30:56.178Z,22.4
2018-09-10T06:31:45.356Z,22.4
2018-09-10T06:32:36.007Z,22.4
2018-09-10T06:33:26.285Z,22.4
2018-09-10T06:34:17.919Z,22.4
2018-09-10T06:35:06.992Z,22.4
2018-09-10T06:35:56.282Z,22.4
2018-09-10T06:36:46.542Z,22.5
2018-09-10T06:37:36.420Z,22.5
2018-09-10T06:38:27.018Z,22.6
2018-09-10T06:39:16.824Z,22.6
2018-09-10T06:40:07.064Z,22.6
2018-09-10T06:40:56.289Z,22.7
2018-09-10T06:41:46.661Z,22.7
2018-09-10T06:42:36.971Z,22.7
2018-09-10T06:43:26.994Z,22.8
2018-09-10T06:44:17.094Z,22.8
2018-09-10T06:45:07.163Z,22.8
2018-09-10T06:45:57.228Z,22.8
2018-09-10T06:46:47.033Z,22.8
2018-09-10T06:47:37.562Z,22.8
2018-09-10T06:48:27.412Z,22.8
2018-09-10T06:49:17.520Z,22.9
2018-09-10T06:50:07.375Z,22.8
2018-09-10T06:50:57.437Z,22.9
2018-09-10T06:51:47.502Z,22.9
2018-09-10T06:52:37.501Z,22.9
2018-09-10T06:53:28.516Z,22.9
2018-09-10T06:54:17.849Z,22.9
2018-09-10T06:55:07.453Z,22.9
2018-09-10T06:55:58.365Z,22.9
2018-09-10T06:56:47.789Z,22.9
2018-09-10T06:57:38.133Z,22.9
2018-09-10T06:58:28.125Z,23
2018-09-10T06:59:18.882Z,23.1
2018-09-10T07:00:08.443Z,23
2018-09-10T07:00:57.947Z,23.1
2018-09-10T07:01:48.147Z,23.1
2018-09-10T07:02:38.782Z,23.1
2018-09-10T07:03:28.036Z,23.1
2018-09-10T07:04:19.544Z,23.1
2018-09-10T07:05:07.853Z,23.1
2018-09-10T07:05:58.770Z,23.1
2018-09-10T07:06:48.273Z,23.1
2018-09-10T07:07:39.223Z,23.1
2018-09-10T07:08:28.850Z,23.1
2018-09-10T07:09:19.103Z,23.1
2018-09-10T07:10:09.410Z,23.1
2018-09-10T07:10:59.632Z,23.1
2018-09-10T07:11:49.584Z,23.1
2018-09-10T07:12:40.096Z,23.1
2018-09-10T07:13:29.119Z,23.1
2018-09-10T07:14:19.146Z,23.1
2018-09-10T07:15:10.349Z,23.2
2018-09-10T07:15:59.824Z,23.2
2018-09-10T07:16:49.821Z,23.2
2018-09-10T07:17:39.664Z,23.2
2018-09-10T07:18:30.313Z,23.2
2018-09-10T07:19:19.577Z,23.2
2018-09-10T07:20:10.411Z,23.2
2018-09-10T07:20:59.898Z,23.2
2018-09-10T07:21:50.174Z,23.1
2018-09-10T07:22:39.602Z,23.1
2018-09-10T07:23:29.817Z,23.2
2018-09-10T07:24:19.856Z,23.1
2018-09-10T07:25:10.443Z,23.1
2018-09-10T07:25:59.996Z,23.2
2018-09-10T07:26:51.206Z,23.2
2018-09-10T07:27:40.794Z,23.2
2018-09-10T07:28:29.985Z,23.2
2018-09-10T07:29:20.573Z,23.2
2018-09-10T07:30:10.878Z,23.2
2018-09-10T07:31:00.640Z,23.2
2018-09-10T07:31:50.468Z,23.3
2018-09-10T07:32:40.793Z,23.3
2018-09-10T07:33:30.295Z,23.3
2018-09-10T07:34:19.745Z,23.3
2018-09-10T07:35:11.014Z,23.2
2018-09-10T07:36:01.105Z,23.3
2018-09-10T07:36:50.845Z,23.3
2018-09-10T07:37:40.885Z,23.3
2018-09-10T07:38:31.515Z,23.3
2018-09-10T07:39:21.302Z,23.3
2018-09-10T07:40:11.960Z,23.3
2018-09-10T07:41:00.845Z,23.4
2018-09-10T07:41:50.907Z,23.4
2018-09-10T07:42:41.834Z,23.4
2018-09-10T07:43:32.343Z,23.4
2018-09-10T07:44:23.472Z,23.4
2018-09-10T07:45:12.297Z,23.4
2018-09-10T07:46:01.615Z,23.4
2018-09-10T07:46:50.704Z,23.4
2018-09-10T07:47:42.462Z,23.4
2018-09-10T07:48:32.267Z,23.4
2018-09-10T07:49:22.343Z,23.4
2018-09-10T07:50:12.533Z,23.4
2018-09-10T07:51:02.548Z,23.4
2018-09-10T07:51:52.057Z,23.4
2018-09-10T07:52:42.107Z,23.4
2018-09-10T07:53:32.392Z,23.5
2018-09-10T07:54:23.149Z,23.4
2018-09-10T07:55:12.750Z,23.4
2018-09-10T07:56:02.889Z,23.5
2018-09-10T07:56:52.947Z,23.5
2018-09-10T07:57:42.932Z,23.5
2018-09-10T07:58:33.019Z,23.5
2018-09-10T07:59:22.795Z,23.6
2018-09-10T08:00:13.216Z,23.5
2018-09-10T08:01:01.992Z,23.6
2018-09-10T08:01:52.855Z,23.5
2018-09-10T08:02:43.133Z,23.5
2018-09-10T08:03:32.621Z,23.6
2018-09-10T08:04:22.931Z,23.6
2018-09-10T08:05:12.713Z,23.6
2018-09-10T08:06:03.703Z,23.6
2018-09-10T08:06:53.153Z,23.6
2018-09-10T08:07:43.773Z,23.6
2018-09-10T08:08:33.793Z,23.6
2018-09-10T08:09:26.159Z,23.6
2018-09-10T08:10:13.643Z,23.6
2018-09-10T08:11:03.680Z,23.6
2018-09-10T08:11:54.105Z,23.6
2018-09-10T08:12:43.600Z,23.6
2018-09-10T08:13:34.260Z,23.6
2018-09-10T08:14:24.285Z,23.6
2018-09-10T08:15:13.532Z,23.6
2018-09-10T08:16:03.530Z,23.6
2018-09-10T08:16:54.697Z,23.7
2018-09-10T08:17:44.205Z,23.6
2018-09-10T08:18:34.567Z,23.7
2018-09-10T08:19:24.355Z,23.7
2018-09-10T08:20:14.720Z,23.7
2018-09-10T08:21:04.707Z,23.7
2018-09-10T08:21:54.557Z,23.7
2018-09-10T08:22:44.304Z,23.8
2018-09-10T08:23:34.424Z,23.8
2018-09-10T08:24:26.653Z,23.8
2018-09-10T08:25:15.846Z,23.8
2018-09-10T08:26:04.066Z,23.8
2018-09-10T08:26:55.204Z,23.8
2018-09-10T08:27:44.976Z,23.8
2018-09-10T08:28:35.509Z,23.8
2018-09-10T08:29:24.832Z,23.8
2018-09-10T08:30:14.916Z,23.8
2018-09-10T08:31:05.643Z,23.8
2018-09-10T08:31:55.258Z,23.8
2018-09-10T08:32:45.333Z,23.8
2018-09-10T08:33:35.232Z,23.8
2018-09-10T08:34:25.044Z,23.8
2018-09-10T08:35:15.271Z,23.8
2018-09-10T08:36:06.535Z,23.8
2018-09-10T08:36:56.708Z,23.8
2018-09-10T08:37:45.879Z,23.8
2018-09-10T08:38:35.836Z,23.8
2018-09-10T08:39:26.462Z,23.8
2018-09-10T08:40:16.224Z,23.8
2018-09-10T08:41:06.613Z,23.8
2018-09-10T08:41:55.826Z,23.8
2018-09-10T08:42:47.045Z,23.8
2018-09-10T08:43:35.360Z,23.9
2018-09-10T08:44:26.510Z,23.9
2018-09-10T08:45:16.622Z,23.8
2018-09-10T08:46:06.404Z,23.8
2018-09-10T08:46:56.763Z,23.9
2018-09-10T08:47:46.540Z,23.8
2018-09-10T08:48:36.560Z,23.8
2018-09-10T08:49:27.023Z,23.8
2018-09-10T08:50:16.138Z,23.8
2018-09-10T08:51:06.818Z,23.8
2018-09-10T08:51:56.263Z,23.8
2018-09-10T08:52:46.634Z,23.8
2018-09-10T08:53:36.453Z,23.8
2018-09-10T08:54:32.328Z,23.8
2018-09-10T08:55:19.953Z,23.8
2018-09-10T08:56:13.822Z,23.9
2018-09-10T08:56:59.107Z,23.8
2018-09-10T08:57:48.689Z,23.9
2018-09-10T08:58:38.488Z,23.9
2018-09-10T08:59:27.669Z,23.8
2018-09-10T09:00:18.717Z,23.8
2018-09-10T09:01:07.554Z,23.9
2018-09-10T09:01:58.644Z,23.9
2018-09-10T09:02:47.999Z,23.9
2018-09-10T09:03:37.163Z,23.9
2018-09-10T09:04:27.230Z,23.9
2018-09-10T09:05:18.359Z,23.9
2018-09-10T09:06:09.538Z,23.8
2018-09-10T09:06:57.972Z,23.9
2018-09-10T09:07:47.926Z,23.8
2018-09-10T09:08:38.669Z,23.8
2018-09-10T09:09:28.581Z,23.9
2018-09-10T09:26:12.639Z,23.7
2018-09-10T09:27:03.496Z,23.7
2018-09-10T09:27:52.968Z,23.8
2018-09-10T09:28:43.572Z,23.8
2018-09-10T09:29:33.940Z,23.8
2018-09-10T09:30:25.653Z,23.8
2018-09-10T09:31:14.296Z,23.8
2018-09-10T09:32:03.284Z,23.8
2018-09-10T09:32:52.847Z,23.8
2018-09-10T09:33:43.711Z,23.8
2018-09-10T09:34:33.069Z,23.8
2018-09-10T09:35:22.976Z,23.8
2018-09-10T09:36:14.859Z,23.8
2018-09-10T09:37:03.373Z,23.9
2018-09-10T09:37:54.018Z,23.9
2018-09-10T09:38:44.008Z,23.9
2018-09-10T09:39:33.331Z,23.9
2018-09-10T09:40:24.224Z,23.9
2018-09-10T09:41:14.021Z,23.9
2018-09-10T09:42:03.831Z,23.9
2018-09-10T09:42:54.141Z,23.9
2018-09-10T09:43:44.240Z,23.9
2018-09-10T09:44:34.809Z,23.9
2018-09-10T09:45:24.103Z,23.9
2018-09-10T09:46:14.939Z,23.9
2018-09-10T09:47:04.582Z,24
2018-09-10T09:47:54.240Z,24
2018-09-10T09:48:44.890Z,24
2018-09-10T09:49:34.669Z,24
2018-09-10T09:50:25.058Z,24
2018-09-10T09:51:16.093Z,24
2018-09-10T09:52:05.109Z,24
2018-09-10T09:52:55.216Z,24
2018-09-10T09:53:45.028Z,24
2018-09-10T09:54:34.993Z,24
2018-09-10T09:55:24.913Z,24
2018-09-10T09:56:16.000Z,24.1
2018-09-10T09:57:05.208Z,24
2018-09-10T09:57:54.122Z,24
2018-09-10T09:58:45.945Z,24
2018-09-10T09:59:35.640Z,24
2018-09-10T10:00:25.137Z,24.1
2018-09-10T10:01:15.772Z,24
2018-09-10T10:02:05.599Z,24.1
2018-09-10T10:02:56.219Z,24
2018-09-10T10:03:46.401Z,24
2018-09-10T10:04:38.507Z,24.1
2018-09-10T10:05:25.564Z,24.1
2018-09-10T10:06:15.034Z,24.1
2018-09-10T10:07:05.759Z,24.1
2018-09-10T10:07:55.152Z,24.1
2018-09-10T10:08:46.488Z,24.1
2018-09-10T10:09:36.195Z,24.1
2018-09-10T10:10:27.699Z,24
2018-09-10T10:11:18.178Z,24.1
2018-09-10T10:12:08.050Z,24.1
2018-09-10T10:12:57.026Z,24.1
2018-09-10T10:13:46.484Z,24.1
2018-09-10T10:14:37.103Z,24.1
2018-09-10T10:15:26.406Z,24.1
2018-09-10T10:16:17.098Z,24.1
2018-09-10T10:17:06.856Z,24.1
2018-09-10T10:17:57.314Z,24.1
2018-09-10T10:18:47.156Z,24.1
2018-09-10T10:19:37.291Z,24.1
2018-09-10T10:20:27.269Z,24.1
2018-09-10T10:21:17.090Z,24.1
2018-09-10T10:22:09.095Z,24.1
2018-09-10T10:22:57.188Z,24.1
2018-09-10T10:23:47.320Z,24.1
2018-09-10T10:24:37.315Z,24.1
2018-09-10T10:25:27.698Z,24.1
2018-09-10T10:26:17.455Z,24.1
2018-09-10T10:27:07.753Z,24.1
2018-09-10T10:27:58.107Z,24.1
2018-09-10T10:28:46.781Z,24.1
2018-09-10T10:29:38.811Z,24.1
2018-09-10T10:30:27.720Z,24.1
2018-09-10T10:31:17.888Z,24.1
2018-09-10T10:32:07.862Z,24.1
2018-09-10T10:32:58.076Z,24.1
2018-09-10T10:33:48.580Z,24.1
2018-09-10T10:34:37.462Z,24.1
2018-09-10T10:35:28.397Z,24.1
2018-09-10T10:36:18.283Z,24.1
2018-09-10T10:37:08.282Z,24.2
2018-09-10T10:37:58.600Z,24.1
2018-09-10T10:38:48.410Z,24.1
2018-09-10T10:39:38.437Z,24.1
2018-09-10T10:40:27.720Z,24.2
2018-09-10T10:41:18.913Z,24.1
2018-09-10T10:42:08.670Z,24.2
2018-09-10T10:42:59.041Z,24.2
2018-09-10T10:43:48.474Z,24.2
2018-09-10T10:44:38.564Z,24.2
2018-09-10T10:45:29.171Z,24.2
2018-09-10T10:46:19.517Z,24.2
2018-09-10T10:47:08.716Z,24.2
2018-09-10T10:47:59.124Z,24.2
2018-09-10T10:48:48.881Z,24.2
2018-09-10T10:49:38.949Z,24.2
2018-09-10T10:50:29.917Z,24.2
2018-09-10T10:51:18.796Z,24.2
2018-09-10T10:52:08.827Z,24.2
2018-09-10T10:52:59.631Z,24.3
2018-09-10T10:53:51.249Z,24.3
2018-09-10T10:54:39.906Z,24.2
2018-09-10T10:55:30.507Z,24.2
2018-09-10T10:56:19.926Z,24.3
2018-09-10T10:57:10.387Z,24.3
2018-09-10T10:58:00.511Z,24.3
2018-09-10T10:58:50.433Z,24.3
2018-09-10T10:59:39.467Z,24.3
2018-09-10T11:00:30.371Z,24.3
2018-09-10T11:01:20.114Z,24.3
2018-09-10T11:02:10.487Z,24.3
2018-09-10T11:03:00.849Z,24.3
2018-09-10T11:03:51.581Z,24.3
2018-09-10T11:04:40.380Z,24.3
2018-09-10T11:05:31.036Z,24.3
2018-09-10T11:06:20.842Z,24.3
2018-09-10T11:07:11.081Z,24.3
2018-09-10T11:08:01.149Z,24.3
2018-09-10T11:08:50.423Z,24.3
2018-09-10T11:09:40.746Z,24.3
2018-09-10T11:10:31.325Z,24.3
2018-09-10T11:11:20.873Z,24.3
2018-09-10T11:12:11.226Z,24.4
2018-09-10T11:13:01.585Z,24.4
2018-09-10T11:13:50.230Z,24.3
2018-09-10T11:14:41.405Z,24.4
2018-09-10T11:15:31.720Z,24.4
2018-09-10T11:16:21.801Z,24.4
2018-09-10T11:17:11.725Z,24.4
2018-09-10T11:18:01.973Z,24.4
2018-09-10T11:18:51.708Z,24.4
2018-09-10T11:19:41.560Z,24.4
2018-09-10T11:20:31.310Z,24.4
2018-09-10T11:21:21.366Z,24.4
2018-09-10T11:22:12.457Z,24.4
2018-09-10T11:23:02.035Z,24.4
2018-09-10T11:23:52.122Z,24.4
2018-09-10T11:24:42.454Z,24.4
2018-09-10T11:25:31.712Z,24.4
2018-09-10T11:26:22.297Z,24.4
2018-09-10T11:27:12.069Z,24.4
2018-09-10T11:28:02.450Z,24.4
2018-09-10T11:28:51.722Z,24.4
2018-09-10T11:29:41.585Z,24.4
2018-09-10T11:30:32.870Z,24.4
2018-09-10T11:31:22.390Z,24.4
2018-09-10T11:32:12.554Z,24.4
2018-09-10T11:33:03.107Z,24.4
2018-09-10T11:33:53.121Z,24.4
2018-09-10T11:34:44.053Z,24.4
2018-09-10T11:35:33.359Z,24.4
2018-09-10T11:36:22.771Z,24.4
2018-09-10T11:37:13.499Z,24.4
2018-09-10T11:38:03.219Z,24.4
2018-09-10T11:38:53.518Z,24.4
2018-09-10T11:39:43.304Z,24.4
2018-09-10T11:40:33.099Z,24.4
2018-09-10T11:41:23.730Z,24.4
2018-09-10T11:42:12.958Z,24.4
2018-09-10T11:43:02.208Z,24.4
2018-09-10T11:43:53.696Z,24.4
2018-09-10T11:44:44.004Z,24.4
2018-09-10T11:45:33.296Z,24.4
2018-09-10T11:46:23.976Z,24.4
2018-09-10T11:47:13.600Z,24.4
2018-09-10T11:48:03.938Z,24.5
2018-09-10T11:48:54.078Z,24.4
2018-09-10T11:49:43.519Z,24.4
2018-09-10T11:50:33.850Z,24.4
2018-09-10T11:51:23.970Z,24.4
2018-09-10T11:52:13.943Z,24.4
2018-09-10T11:53:04.145Z,24.4
2018-09-10T11:53:54.148Z,24.4
2018-09-10T11:54:44.290Z,24.4
2018-09-10T11:55:36.355Z,24.4
2018-09-10T11:56:24.627Z,24.4
2018-09-10T11:57:14.363Z,24.4
2018-09-10T11:58:05.015Z,24.4
2018-09-10T11:58:54.764Z,24.4
2018-09-10T11:59:43.704Z,24.4
2018-09-10T12:00:34.330Z,24.4
2018-09-10T12:01:24.977Z,24.4
2018-09-10T12:02:16.998Z,24.4
2018-09-10T12:03:04.514Z,24.4
2018-09-10T12:03:55.547Z,24.4
2018-09-10T12:04:45.497Z,24.4
2018-09-10T12:05:35.542Z,24.4
2018-09-10T12:06:25.927Z,24.4
2018-09-10T12:07:15.696Z,24.4
2018-09-10T12:08:05.239Z,24.5
2018-09-10T12:08:55.329Z,24.5
2018-09-10T12:09:46.119Z,24.5
2018-09-10T12:10:35.681Z,24.4
2018-09-10T12:11:26.009Z,24.5
2018-09-10T12:12:16.071Z,24.4
2018-09-10T12:13:05.923Z,24.4
2018-09-10T12:13:55.978Z,24.5
2018-09-10T12:14:46.497Z,24.4
2018-09-10T12:15:35.743Z,24.4
2018-09-10T12:16:25.228Z,24.4
2018-09-10T12:17:15.093Z,24.4
2018-09-10T12:18:06.526Z,24.4
2018-09-10T12:18:56.626Z,24.4
2018-09-10T12:19:46.046Z,24.4
2018-09-10T12:20:36.786Z,24.4
2018-09-10T12:21:26.954Z,24.4
2018-09-10T12:22:16.567Z,24.4
2018-09-10T12:23:06.935Z,24.4
2018-09-10T12:23:55.905Z,24.5